Time;durP1;ratioP1;P1;durP2;ratioP2;P2;SDS_P1;SDS_P2;PMS_P1;PMS_P2;Temp;Humidity;BMP_temperature;BMP_pressure;BME280_temperature;BME280_humidity;BME280_pressure;Samples;Min_cycle;Max_cycle;Signal;HPM_P1;HPM_P2
2021/07/05 00:00:34;;;;;;;6.25;4.00;;;16.30;99.90;;;;;;5024932;28;20167;-76
2021/07/05 00:03:00;;;;;;;6.40;3.90;;;16.20;99.90;;;;;;5036772;28;20034;-76
2021/07/05 00:05:25;;;;;;;6.50;3.85;;;16.20;99.90;;;;;;5036059;28;20450;-77
2021/07/05 00:07:54;;;;;;;6.15;4.00;;;16.30;99.90;;;;;;5036538;28;20102;-76
2021/07/05 00:10:24;;;;;;;6.65;4.35;;;16.20;99.90;;;;;;5022010;28;20029;-77
2021/07/05 00:12:50;;;;;;;7.65;4.65;;;16.30;99.90;;;;;;5020507;28;20024;-72
2021/07/05 00:15:20;;;;;;;9.57;5.10;;;16.20;99.90;;;;;;5034567;28;20052;-72
2021/07/05 00:17:49;;;;;;;9.77;5.57;;;16.30;99.90;;;;;;4311202;28;10000740;-75
2021/07/05 00:20:17;;;;;;;7.43;5.18;;;16.30;99.90;;;;;;5015480;28;20468;-67
2021/07/05 00:22:45;;;;;;;9.52;5.38;;;16.30;99.90;;;;;;5035540;28;20047;-66
2021/07/05 00:25:10;;;;;;;9.45;6.20;;;16.30;99.90;;;;;;5033728;28;22052;-67
2021/07/05 00:27:38;;;;;;;8.15;5.07;;;16.40;99.90;;;;;;5033356;28;20021;-66
2021/07/05 00:30:04;;;;;;;7.97;5.03;;;16.40;99.90;;;;;;5033638;28;20107;-66
2021/07/05 00:32:30;;;;;;;8.68;4.72;;;16.40;99.90;;;;;;5014079;28;20447;-66
2021/07/05 00:34:58;;;;;;;8.27;5.43;;;16.40;99.90;;;;;;5034149;28;20047;-66
2021/07/05 00:37:23;;;;;;;8.40;4.95;;;16.40;99.90;;;;;;5037260;28;20041;-67
2021/07/05 00:39:49;;;;;;;7.95;5.85;;;16.50;99.90;;;;;;5034620;28;20840;-66
2021/07/05 00:42:17;;;;;;;7.93;4.97;;;16.40;99.90;;;;;;5032843;28;20473;-66
2021/07/05 00:57:39;;;;;;;8.57;5.15;;;16.40;99.90;;;;;;5156191;23;20062;-72
2021/07/05 01:00:10;;;;;;;8.63;5.65;;;16.40;99.90;;;;;;4993684;28;20034;-72
2021/07/05 01:02:38;;;;;;;7.60;5.38;;;16.40;99.90;;;;;;4976903;28;20045;-72
2021/07/05 01:05:07;;;;;;;8.93;5.60;;;16.30;99.90;;;;;;4963182;28;20042;-72
2021/07/05 01:07:35;;;;;;;9.43;5.43;;;16.30;99.90;;;;;;4977403;28;20048;-72
2021/07/05 01:10:01;;;;;;;7.68;4.68;;;16.30;99.90;;;;;;4974660;28;20040;-72
2021/07/05 01:12:27;;;;;;;8.77;5.00;;;16.30;99.90;;;;;;4991489;28;20040;-72
2021/07/05 01:14:52;;;;;;;8.57;5.85;;;16.20;99.90;;;;;;4997083;28;20407;-72
2021/07/05 01:17:20;;;;;;;10.93;6.82;;;16.20;99.90;;;;;;4963435;28;20481;-73
2021/07/05 01:19:47;;;;;;;8.93;6.00;;;16.20;99.90;;;;;;4995548;28;20034;-71
2021/07/05 01:22:13;;;;;;;9.90;5.75;;;16.10;99.90;;;;;;4986556;28;20030;-72
2021/07/05 01:24:39;;;;;;;10.93;5.97;;;16.10;99.90;;;;;;4987665;28;20092;-72
2021/07/05 01:27:05;;;;;;;11.98;7.32;;;16.10;99.90;;;;;;4988283;28;20060;-72
2021/07/05 01:29:33;;;;;;;9.77;7.35;;;16.00;99.90;;;;;;4979777;28;20041;-72
2021/07/05 01:32:01;;;;;;;9.35;6.60;;;16.00;99.90;;;;;;4988472;28;20049;-72
2021/07/05 01:34:31;;;;;;;10.00;6.85;;;16.10;99.90;;;;;;4999937;28;20034;-71
2021/07/05 01:36:59;;;;;;;9.90;7.55;;;16.00;99.90;;;;;;4998822;28;20114;-72
2021/07/05 01:39:25;;;;;;;10.25;7.45;;;16.00;99.90;;;;;;4979421;28;20040;-72
2021/07/05 01:41:50;;;;;;;12.05;8.45;;;16.00;99.90;;;;;;4978341;28;20022;-72
2021/07/05 01:44:18;;;;;;;11.77;9.20;;;16.00;99.90;;;;;;4998679;28;20033;-72
2021/07/05 01:46:48;;;;;;;13.98;10.05;;;16.00;99.90;;;;;;4970638;28;20045;-72
2021/07/05 01:49:14;;;;;;;13.05;9.55;;;16.00;99.90;;;;;;5000194;28;20141;-72
2021/07/05 01:51:40;;;;;;;13.60;8.63;;;15.90;99.90;;;;;;4999635;28;20095;-72
2021/07/05 01:54:10;;;;;;;10.82;7.90;;;16.00;99.90;;;;;;4969913;28;20129;-72
2021/07/05 01:56:36;;;;;;;10.52;7.95;;;16.00;99.90;;;;;;4983403;28;20149;-72
2021/07/05 01:59:01;;;;;;;9.68;7.38;;;16.10;99.90;;;;;;4998573;28;20125;-71
2021/07/05 02:01:29;;;;;;;11.05;8.07;;;16.00;99.90;;;;;;4970578;28;20093;-72
2021/07/05 02:03:55;;;;;;;10.63;7.63;;;16.00;99.90;;;;;;4998582;28;20030;-72
2021/07/05 02:06:20;;;;;;;8.82;7.00;;;16.00;99.90;;;;;;4998802;28;20041;-72
2021/07/05 02:08:49;;;;;;;12.35;8.27;;;16.10;99.90;;;;;;4997780;28;20059;-72
2021/07/05 02:11:14;;;;;;;10.15;6.82;;;16.10;99.90;;;;;;4999762;28;20081;-72
2021/07/05 02:13:40;;;;;;;12.05;7.45;;;16.10;99.90;;;;;;4999298;28;20137;-72
2021/07/05 02:16:05;;;;;;;8.88;6.65;;;16.10;99.90;;;;;;4999058;28;20469;-72
2021/07/05 02:18:31;;;;;;;9.75;6.82;;;16.10;99.90;;;;;;4997869;28;20053;-72
2021/07/05 02:20:59;;;;;;;8.10;5.95;;;16.20;99.90;;;;;;4978899;28;20077;-72
2021/07/05 02:23:25;;;;;;;8.52;5.88;;;16.20;99.90;;;;;;4998187;28;20040;-72
2021/07/05 02:25:53;;;;;;;8.50;5.47;;;16.20;99.90;;;;;;4998428;28;20054;-72
2021/07/05 02:28:21;;;;;;;10.25;6.00;;;16.20;99.90;;;;;;4979524;28;20033;-72
2021/07/05 02:30:49;;;;;;;9.60;7.10;;;16.10;99.90;;;;;;4999331;28;20040;-72
2021/07/05 02:33:26;;;;;;;9.35;6.47;;;16.10;99.90;;;;;;4966954;28;20052;-72
2021/07/05 02:35:54;;;;;;;9.32;7.47;;;16.10;99.90;;;;;;4998168;28;20022;-72
2021/07/05 02:38:23;;;;;;;11.50;8.23;;;16.20;99.90;;;;;;4997512;28;20026;-72
2021/07/05 02:40:52;;;;;;;12.05;8.85;;;16.10;99.90;;;;;;4999192;28;20022;-72
2021/07/05 02:43:21;;;;;;;12.57;9.55;;;16.10;99.90;;;;;;4998573;28;20041;-73
2021/07/05 02:45:47;;;;;;;10.75;8.68;;;16.10;99.90;;;;;;4983260;28;20034;-72
2021/07/05 02:48:16;;;;;;;11.55;9.10;;;16.10;99.90;;;;;;4978629;28;20105;-72
2021/07/05 02:50:47;;;;;;;11.52;8.07;;;16.10;99.90;;;;;;4997881;28;20529;-72
2021/07/05 02:53:15;;;;;;;10.07;8.32;;;16.20;99.90;;;;;;4998508;28;20021;-72
2021/07/05 02:55:43;;;;;;;11.57;8.98;;;16.20;99.90;;;;;;4995054;28;20026;-71
2021/07/05 02:58:13;;;;;;;10.52;9.00;;;16.20;99.90;;;;;;4998525;28;20034;-72
2021/07/05 03:00:41;;;;;;;10.90;8.05;;;16.20;99.90;;;;;;4984272;28;20858;-72
2021/07/05 03:03:09;;;;;;;11.73;8.48;;;16.30;99.90;;;;;;4986577;28;20117;-72
2021/07/05 03:05:37;;;;;;;10.32;7.68;;;16.20;99.90;;;;;;4981402;28;20040;-72
2021/07/05 03:08:05;;;;;;;9.82;7.82;;;16.30;99.90;;;;;;4968913;28;20030;-72
2021/07/05 03:10:33;;;;;;;10.23;8.00;;;16.30;99.90;;;;;;4979604;28;20037;-70
2021/07/05 03:12:59;;;;;;;10.10;8.10;;;16.20;99.90;;;;;;4997134;28;20026;-70
2021/07/05 03:15:25;;;;;;;11.45;7.80;;;16.20;99.90;;;;;;4977318;28;20029;-70
2021/07/05 03:17:53;;;;;;;9.88;8.10;;;16.30;99.90;;;;;;4997502;28;20052;-70
2021/07/05 03:20:23;;;;;;;11.93;8.85;;;16.30;99.90;;;;;;4997796;28;20064;-70
2021/07/05 03:22:49;;;;;;;11.07;8.80;;;16.30;99.90;;;;;;4997061;28;20044;-70
2021/07/05 03:25:19;;;;;;;10.20;8.52;;;16.40;99.90;;;;;;4984849;28;22173;-70
2021/07/05 03:27:47;;;;;;;8.60;7.10;;;16.40;99.90;;;;;;4978976;28;20169;-70
2021/07/05 03:30:13;;;;;;;11.80;8.32;;;16.40;99.90;;;;;;4977820;28;20030;-71
2021/07/05 03:32:44;;;;;;;10.63;8.43;;;16.40;99.90;;;;;;4978223;28;20018;-70
2021/07/05 03:35:13;;;;;;;11.18;8.95;;;16.40;99.90;;;;;;4996941;28;20367;-70
2021/07/05 03:37:41;;;;;;;11.80;9.10;;;16.50;99.90;;;;;;4977823;28;20045;-70
2021/07/05 03:40:09;;;;;;;11.75;9.50;;;16.40;99.90;;;;;;4962473;28;20041;-70
2021/07/05 03:42:36;;;;;;;10.63;8.60;;;16.50;99.90;;;;;;4981945;28;20112;-70
2021/07/05 03:45:08;;;;;;;10.82;8.63;;;16.50;99.90;;;;;;4976204;28;20131;-70
2021/07/05 03:47:34;;;;;;;10.63;9.40;;;16.50;99.90;;;;;;4997059;28;20061;-70
2021/07/05 03:50:00;;;;;;;9.88;8.25;;;16.60;99.90;;;;;;4968089;28;20511;-70
2021/07/05 03:52:25;;;;;;;12.35;9.60;;;16.60;99.90;;;;;;4980890;28;20053;-70
2021/07/05 03:54:53;;;;;;;12.45;10.02;;;16.60;99.90;;;;;;4977702;28;20081;-70
2021/07/05 03:57:22;;;;;;;10.73;9.27;;;16.60;99.90;;;;;;4996500;28;20137;-70
2021/07/05 03:59:54;;;;;;;12.40;10.63;;;16.70;99.90;;;;;;4998513;28;20037;-70
2021/07/05 04:02:22;;;;;;;14.75;11.63;;;16.60;99.90;;;;;;4998339;28;20026;-70
2021/07/05 04:04:48;;;;;;;12.15;10.52;;;16.70;99.90;;;;;;4997030;28;20041;-70
2021/07/05 04:07:14;;;;;;;12.23;10.25;;;16.70;99.90;;;;;;4997603;28;20208;-70
2021/07/05 04:09:42;;;;;;;13.57;11.68;;;16.70;99.90;;;;;;4996358;28;20117;-71
2021/07/05 04:12:10;;;;;;;12.00;10.70;;;16.60;99.90;;;;;;4976250;28;20042;-70
2021/07/05 04:14:36;;;;;;;14.27;11.15;;;16.70;99.90;;;;;;4982147;28;20693;-70
2021/07/05 04:17:06;;;;;;;13.00;11.50;;;16.80;99.90;;;;;;4980361;28;20045;-70
2021/07/05 04:19:34;;;;;;;12.55;11.27;;;16.80;99.90;;;;;;4977074;28;21795;-71
2021/07/05 04:22:00;;;;;;;12.70;10.35;;;16.70;99.90;;;;;;4963692;28;20380;-70
2021/07/05 04:24:25;;;;;;;13.48;11.07;;;16.70;99.90;;;;;;4976090;28;20045;-70
2021/07/05 04:26:56;;;;;;;12.57;11.25;;;16.80;99.90;;;;;;4960547;28;20474;-70
2021/07/05 04:29:21;;;;;;;12.45;11.15;;;16.80;99.90;;;;;;4978459;28;20037;-70
2021/07/05 04:31:47;;;;;;;15.95;12.70;;;16.80;99.90;;;;;;4996511;28;20067;-70
2021/07/05 04:34:12;;;;;;;15.25;11.88;;;16.80;99.90;;;;;;4961272;28;20057;-70
2021/07/05 04:36:38;;;;;;;14.77;12.50;;;16.70;99.90;;;;;;4996856;28;20052;-70
2021/07/05 04:39:04;;;;;;;13.88;12.40;;;16.70;99.90;;;;;;4981181;28;20057;-70
2021/07/05 04:41:30;;;;;;;13.90;12.43;;;16.70;99.90;;;;;;4995366;28;20034;-70
2021/07/05 04:43:56;;;;;;;14.70;12.38;;;16.70;99.90;;;;;;4978007;28;20048;-70
2021/07/05 04:46:25;;;;;;;16.25;14.55;;;16.70;99.90;;;;;;4996792;28;20032;-71
2021/07/05 04:48:54;;;;;;;15.48;13.70;;;16.70;99.90;;;;;;4996660;28;20965;-70
2021/07/05 04:51:23;;;;;;;16.05;14.15;;;16.70;99.90;;;;;;4996051;28;20026;-70
2021/07/05 04:53:51;;;;;;;17.42;13.95;;;16.70;99.90;;;;;;4976187;28;20045;-70
2021/07/05 04:56:17;;;;;;;18.83;16.60;;;16.60;99.90;;;;;;4979230;28;20050;-70
2021/07/05 04:58:42;;;;;;;17.33;15.05;;;16.60;99.90;;;;;;4963002;28;20048;-70
2021/07/05 05:01:08;;;;;;;17.05;14.63;;;16.60;99.90;;;;;;4951171;28;20034;-70
2021/07/05 05:03:34;;;;;;;20.55;16.77;;;16.60;99.90;;;;;;4980059;28;20026;-70
2021/07/05 05:05:59;;;;;;;20.25;16.23;;;16.60;99.90;;;;;;4997640;28;20052;-70
2021/07/05 05:08:25;;;;;;;19.52;16.60;;;16.60;99.90;;;;;;4995936;28;20029;-71
2021/07/05 05:10:51;;;;;;;17.85;15.93;;;16.60;99.90;;;;;;4996416;28;21799;-71
2021/07/05 05:13:16;;;;;;;18.98;15.93;;;16.60;99.90;;;;;;4994970;28;20058;-70
2021/07/05 05:15:44;;;;;;;18.35;16.35;;;16.60;99.90;;;;;;4995601;28;20228;-70
2021/07/05 05:18:12;;;;;;;18.70;15.82;;;16.70;99.90;;;;;;4995421;28;20029;-70
2021/07/05 05:20:40;;;;;;;18.42;15.82;;;16.70;99.90;;;;;;4975819;28;20030;-70
2021/07/05 05:23:06;;;;;;;18.17;15.85;;;16.80;99.90;;;;;;4979814;28;20121;-70
2021/07/05 05:25:31;;;;;;;17.20;14.40;;;16.70;99.90;;;;;;4981952;28;20033;-70
2021/07/05 05:27:59;;;;;;;18.65;16.58;;;16.80;99.90;;;;;;4995446;28;20029;-71
2021/07/05 05:30:25;;;;;;;18.50;14.43;;;16.80;99.90;;;;;;4976839;28;20026;-70
2021/07/05 05:32:51;;;;;;;18.67;15.98;;;16.80;99.90;;;;;;4995560;28;20108;-71
2021/07/05 05:35:18;;;;;;;18.90;15.90;;;16.90;99.90;;;;;;4995417;28;20504;-71
2021/07/05 05:37:44;;;;;;;17.52;15.70;;;16.80;99.90;;;;;;4979059;28;20096;-70
2021/07/05 05:40:13;;;;;;;16.23;14.52;;;16.80;99.90;;;;;;4980742;28;20049;-70
2021/07/05 05:42:38;;;;;;;18.48;15.57;;;16.80;99.90;;;;;;4959370;28;20033;-71
2021/07/05 05:45:04;;;;;;;16.52;14.32;;;16.80;99.90;;;;;;4968028;28;20034;-71
2021/07/05 05:47:30;;;;;;;15.48;13.88;;;16.80;99.90;;;;;;4995299;28;20044;-70
2021/07/05 05:49:56;;;;;;;15.07;13.50;;;16.80;99.90;;;;;;4995564;28;20034;-71
2021/07/05 05:52:23;;;;;;;14.93;13.02;;;16.90;99.90;;;;;;4995365;28;20037;-70
2021/07/05 05:54:49;;;;;;;13.55;11.40;;;16.90;99.90;;;;;;4995732;28;20034;-71
2021/07/05 05:57:29;;;;;;;13.38;10.48;;;16.90;99.90;;;;;;4961820;28;20042;-71
2021/07/05 05:59:56;;;;;;;13.43;11.27;;;16.90;99.90;;;;;;4984737;28;20105;-70
2021/07/05 06:02:23;;;;;;;13.45;10.73;;;16.90;99.90;;;;;;4981048;28;20040;-70
2021/07/05 06:04:53;;;;;;;12.13;10.93;;;16.80;99.90;;;;;;4976392;28;20408;-70
2021/07/05 06:07:19;;;;;;;13.38;11.90;;;16.80;99.90;;;;;;4997343;28;20516;-71
2021/07/05 06:09:44;;;;;;;13.73;12.00;;;16.70;99.90;;;;;;4999787;28;20037;-70
2021/07/05 06:12:10;;;;;;;12.10;10.32;;;16.70;99.90;;;;;;4978900;28;20026;-73
2021/07/05 06:14:36;;;;;;;12.82;10.07;;;16.80;99.90;;;;;;4998332;28;20483;-70
2021/07/05 06:17:01;;;;;;;13.00;10.85;;;16.80;99.90;;;;;;4998540;28;20434;-70
2021/07/05 06:19:27;;;;;;;12.60;10.43;;;16.80;99.90;;;;;;4979665;28;20064;-71
2021/07/05 06:21:55;;;;;;;11.77;10.50;;;16.70;99.90;;;;;;4998601;28;20022;-71
2021/07/05 06:24:23;;;;;;;12.30;10.45;;;16.80;99.90;;;;;;4978707;28;20675;-70
2021/07/05 06:26:48;;;;;;;12.65;10.38;;;16.80;99.90;;;;;;4998222;28;20363;-70
2021/07/05 06:29:16;;;;;;;13.05;10.90;;;16.80;99.90;;;;;;4982871;28;20041;-70
2021/07/05 06:31:46;;;;;;;10.63;9.18;;;16.80;99.90;;;;;;4978424;28;20104;-70
2021/07/05 06:34:12;;;;;;;11.18;10.07;;;16.80;99.90;;;;;;4997413;28;20153;-70
2021/07/05 06:36:38;;;;;;;10.38;9.38;;;16.70;99.90;;;;;;4999110;28;20033;-69
2021/07/05 06:39:06;;;;;;;12.32;9.98;;;16.80;99.90;;;;;;4998933;28;20120;-69
2021/07/05 06:41:32;;;;;;;9.30;8.38;;;16.90;99.90;;;;;;4994574;28;20034;-69
2021/07/05 06:43:58;;;;;;;9.20;7.82;;;16.80;99.90;;;;;;4998368;28;20041;-70
2021/07/05 06:46:23;;;;;;;10.13;8.20;;;16.90;99.90;;;;;;4982325;28;20100;-70
2021/07/05 06:48:49;;;;;;;8.77;7.88;;;16.90;99.90;;;;;;4982565;28;20022;-69
2021/07/05 06:51:15;;;;;;;9.73;8.45;;;16.90;99.90;;;;;;4997497;28;21884;-69
2021/07/05 06:53:41;;;;;;;10.23;8.32;;;17.00;99.90;;;;;;4977536;28;20455;-72
2021/07/05 06:56:09;;;;;;;9.38;7.70;;;17.00;99.90;;;;;;4982073;28;20061;-70
2021/07/05 06:58:35;;;;;;;11.43;8.13;;;17.00;99.90;;;;;;4997059;28;20030;-70
2021/07/05 07:01:01;;;;;;;8.85;7.30;;;17.00;99.90;;;;;;4977408;28;20044;-73
2021/07/05 07:03:32;;;;;;;10.13;7.78;;;17.10;99.90;;;;;;4982308;28;20044;-70
2021/07/05 07:05:57;;;;;;;9.10;7.03;;;17.10;99.90;;;;;;4997159;28;20034;-70
2021/07/05 07:08:23;;;;;;;9.30;7.35;;;17.10;99.90;;;;;;4977967;28;20033;-71
2021/07/05 07:10:49;;;;;;;9.48;6.43;;;17.20;99.90;;;;;;4984824;28;20104;-72
2021/07/05 07:13:16;;;;;;;8.85;7.53;;;17.20;99.90;;;;;;4977327;28;20463;-72
2021/07/05 07:15:47;;;;;;;8.45;7.32;;;17.30;99.90;;;;;;4982464;28;20034;-71
2021/07/05 07:20:41;;;;;;;10.80;7.22;;;17.30;99.90;;;;;;4978676;28;20025;-71
2021/07/05 07:23:06;;;;;;;10.80;7.40;;;17.50;99.90;;;;;;4993673;28;20120;-70
2021/07/05 07:25:34;;;;;;;9.68;6.93;;;17.40;99.90;;;;;;4978513;28;20363;-71
2021/07/05 07:28:00;;;;;;;7.75;6.95;;;17.50;99.90;;;;;;4998323;28;20041;-71
2021/07/05 07:30:29;;;;;;;8.65;6.63;;;17.60;99.90;;;;;;4981231;28;20444;-71
2021/07/05 07:32:56;;;;;;;8.10;6.68;;;17.60;99.90;;;;;;4977150;28;20444;-71
2021/07/05 07:35:23;;;;;;;9.30;6.80;;;17.70;99.90;;;;;;4996531;28;20056;-71
2021/07/05 07:37:52;;;;;;;7.20;6.22;;;17.70;99.90;;;;;;4997074;28;20030;-71
2021/07/05 07:40:19;;;;;;;6.95;6.10;;;17.70;99.90;;;;;;4998175;28;20072;-71
2021/07/05 07:42:45;;;;;;;7.30;5.63;;;17.80;99.90;;;;;;4983320;28;20038;-71
2021/07/05 07:45:14;;;;;;;6.85;5.47;;;17.90;99.90;;;;;;4979011;28;20062;-71
2021/07/05 07:47:40;;;;;;;7.85;5.43;;;17.80;99.90;;;;;;4977803;28;20037;-72
2021/07/05 07:50:07;;;;;;;8.48;5.65;;;17.90;99.90;;;;;;4976680;28;20040;-71
2021/07/05 07:52:32;;;;;;;9.63;5.43;;;17.90;99.90;;;;;;4977215;28;20120;-71
2021/07/05 07:55:03;;;;;;;7.93;5.50;;;18.00;99.90;;;;;;4978469;28;20108;-71
2021/07/05 07:57:29;;;;;;;8.30;5.78;;;18.00;99.90;;;;;;4996451;28;20050;-71
2021/07/05 07:59:54;;;;;;;8.13;5.43;;;18.10;99.90;;;;;;4996052;28;20375;-71
2021/07/05 08:02:20;;;;;;;6.63;5.30;;;18.10;99.90;;;;;;4995742;28;20034;-71
2021/07/05 08:04:48;;;;;;;14.38;12.10;;;18.10;99.90;;;;;;4995563;28;20372;-68
2021/07/05 08:07:14;;;;;;;10.30;8.95;;;18.20;99.90;;;;;;4996061;28;20030;-67
2021/07/05 08:09:40;;;;;;;9.20;6.13;;;18.30;99.90;;;;;;4997278;28;20057;-71
2021/07/05 08:12:11;;;;;;;6.78;5.90;;;18.30;99.90;;;;;;4996299;28;20029;-71
2021/07/05 08:14:40;;;;;;;7.55;6.32;;;18.30;99.90;;;;;;4966416;28;20063;-70
2021/07/05 08:17:10;;;;;;;9.38;6.70;;;18.30;99.90;;;;;;4996117;28;20030;-71
2021/07/05 08:19:38;;;;;;;9.35;7.28;;;18.30;99.90;;;;;;4984803;28;20034;-70
2021/07/05 08:22:03;;;;;;;8.52;6.97;;;18.30;99.90;;;;;;4996557;28;20045;-71
2021/07/05 08:24:29;;;;;;;9.30;7.00;;;18.20;99.90;;;;;;4980994;28;20030;-70
2021/07/05 08:26:57;;;;;;;7.72;6.88;;;18.20;99.90;;;;;;4996775;28;20087;-71
2021/07/05 08:29:23;;;;;;;7.60;6.40;;;18.20;99.90;;;;;;4981408;28;20022;-70
2021/07/05 08:31:51;;;;;;;9.48;8.02;;;18.20;99.90;;;;;;4995214;28;20041;-71
2021/07/05 08:34:19;;;;;;;8.73;7.13;;;18.20;99.90;;;;;;4981238;28;20499;-71
2021/07/05 08:36:47;;;;;;;8.80;7.35;;;18.30;99.90;;;;;;4996211;28;20038;-71
2021/07/05 08:39:13;;;;;;;8.52;6.40;;;18.10;99.90;;;;;;4980267;28;20033;-70
2021/07/05 08:41:39;;;;;;;9.57;6.40;;;18.10;99.90;;;;;;4980527;28;20064;-71
2021/07/05 08:44:10;;;;;;;10.82;9.43;;;18.00;99.90;;;;;;4976043;28;20161;-67
2021/07/05 08:46:35;;;;;;;9.20;6.95;;;18.10;99.90;;;;;;4966569;28;20022;-71
2021/07/05 08:49:01;;;;;;;7.18;6.00;;;18.10;99.90;;;;;;4980043;28;20096;-71
2021/07/05 08:51:27;;;;;;;8.25;5.95;;;18.10;99.90;;;;;;4994833;28;20084;-71
2021/07/05 08:53:55;;;;;;;7.60;5.47;;;18.30;99.90;;;;;;4995389;28;20428;-71
2021/07/05 08:56:22;;;;;;;7.30;5.20;;;18.30;99.90;;;;;;4996047;28;20565;-71
2021/07/05 08:58:49;;;;;;;8.98;5.03;;;18.20;99.90;;;;;;4981497;28;20471;-66
2021/07/05 09:01:17;;;;;;;7.72;5.00;;;18.30;99.90;;;;;;4981873;28;20044;-67
2021/07/05 09:03:42;;;;;;;8.02;5.22;;;18.40;99.90;;;;;;4981167;28;20025;-67
2021/07/05 09:06:16;;;;;;;6.43;5.00;;;18.60;99.90;;;;;;4994623;28;20026;-67
2021/07/05 09:08:46;;;;;;;6.00;4.68;;;18.60;99.90;;;;;;4994429;28;20033;-67
2021/07/05 09:11:19;;;;;;;7.45;5.13;;;18.80;99.90;;;;;;4966848;28;20468;-68
2021/07/05 09:13:52;;;;;;;7.63;4.93;;;18.90;99.90;;;;;;4963722;28;20112;-67
2021/07/05 09:16:37;;;;;;;7.88;4.55;;;19.00;99.90;;;;;;4996034;28;20046;-67
2021/07/05 09:19:24;;;;;;;7.50;4.40;;;19.10;99.90;;;;;;4995499;28;20935;-68
2021/07/05 09:22:08;;;;;;;6.10;4.60;;;19.20;99.90;;;;;;4979017;28;20273;-67
2021/07/05 09:24:44;;;;;;;5.95;4.30;;;19.20;99.90;;;;;;4981870;28;20034;-67
2021/07/05 09:27:32;;;;;;;6.57;4.40;;;19.30;99.90;;;;;;4995670;28;20030;-68
2021/07/05 09:30:11;;;;;;;7.55;3.72;;;19.40;99.90;;;;;;4962719;28;20061;-67
2021/07/05 09:32:37;;;;;;;6.88;4.28;;;19.30;99.90;;;;;;4980462;28;20050;-67
2021/07/05 09:35:16;;;;;;;5.60;3.20;;;19.50;99.90;;;;;;4976570;28;20416;-67
2021/07/05 09:37:54;;;;;;;5.25;3.45;;;19.50;99.90;;;;;;4992284;28;20133;-68
2021/07/05 09:40:22;;;;;;;5.55;3.63;;;19.60;99.90;;;;;;4976423;28;20143;-67
2021/07/05 09:42:50;;;;;;;19.70;16.00;;;19.80;99.90;;;;;;4996439;28;20154;-70
2021/07/05 09:45:29;;;;;;;7.47;3.67;;;20.00;99.90;;;;;;4965687;28;20566;-70
2021/07/05 09:48:23;;;;;;;6.90;3.90;;;19.90;99.90;;;;;;4984710;28;20045;-67
2021/07/05 09:51:05;;;;;;;6.63;3.40;;;20.00;99.90;;;;;;4999325;28;20901;-67
2021/07/05 09:53:44;;;;;;;5.97;3.70;;;20.00;99.90;;;;;;4970635;28;20052;-67
2021/07/05 09:56:26;;;;;;;5.97;3.70;;;20.10;99.90;;;;;;4970505;28;20045;-67
2021/07/05 09:58:58;;;;;;;6.80;3.40;;;20.20;99.90;;;;;;4995193;28;20023;-68
2021/07/05 10:01:35;;;;;;;5.78;3.40;;;20.10;99.90;;;;;;4983969;28;20463;-67
2021/07/05 10:04:37;;;;;;;5.70;3.50;;;20.30;99.90;;;;;;4998942;28;20038;-68
2021/07/05 10:07:04;;;;;;;5.07;3.10;;;20.40;99.90;;;;;;4970103;28;20037;-68
2021/07/05 10:09:34;;;;;;;6.05;3.38;;;20.30;99.90;;;;;;4999095;28;20038;-68
2021/07/05 10:12:23;;;;;;;5.10;3.20;;;20.40;99.90;;;;;;4978305;28;20030;-68
2021/07/05 10:14:55;;;;;;;6.00;3.58;;;20.50;99.90;;;;;;4999392;28;20055;-68
2021/07/05 10:17:21;;;;;;;5.78;3.58;;;20.50;99.90;;;;;;4998120;28;20554;-68
2021/07/05 10:19:49;;;;;;;5.72;3.38;;;20.60;99.90;;;;;;4995973;28;20041;-68
2021/07/05 10:22:17;;;;;;;4.90;3.22;;;20.80;99.90;;;;;;4983024;28;20430;-68
2021/07/05 10:24:47;;;;;;;6.53;3.20;;;20.80;99.90;;;;;;4982578;28;20050;-68
2021/07/05 10:27:12;;;;;;;6.57;3.05;;;20.90;99.90;;;;;;4998757;28;20104;-68
2021/07/05 10:29:38;;;;;;;6.43;3.10;;;20.60;99.90;;;;;;4978768;28;20478;-68
2021/07/05 10:32:05;;;;;;;5.43;2.90;;;20.60;99.90;;;;;;4979900;28;20041;-68
2021/07/05 10:34:35;;;;;;;7.15;3.50;;;20.60;99.90;;;;;;4980776;28;20167;-68
2021/07/05 10:37:02;;;;;;;6.38;3.35;;;20.60;99.90;;;;;;4965151;28;20044;-68
2021/07/05 10:39:30;;;;;;;4.80;3.20;;;20.50;99.90;;;;;;4964251;28;20034;-68
2021/07/05 10:41:56;;;;;;;5.03;3.47;;;20.20;99.90;;;;;;4963434;28;20038;-68
2021/07/05 10:44:45;;;;;;;6.68;4.00;;;20.00;99.90;;;;;;4981491;28;20044;-68
2021/07/05 10:47:11;;;;;;;6.93;4.40;;;20.00;99.90;;;;;;4978618;28;20107;-67
2021/07/05 10:49:47;;;;;;;5.43;4.40;;;19.80;99.90;;;;;;4961393;28;20443;-67
2021/07/05 10:52:19;;;;;;;6.57;3.90;;;19.70;99.90;;;;;;4979178;28;20034;-67
2021/07/05 10:54:47;;;;;;;6.13;4.32;;;19.60;99.90;;;;;;4976510;28;20534;-67
2021/07/05 10:57:17;;;;;;;6.03;3.75;;;19.60;99.90;;;;;;4996977;28;20093;-67
2021/07/05 10:59:47;;;;;;;7.80;4.10;;;19.40;99.90;;;;;;4996289;28;20088;-69
2021/07/05 11:02:37;;;;;;;5.63;4.03;;;19.60;99.90;;;;;;4981650;28;20029;-70
2021/07/05 11:05:25;;;;;;;5.80;3.47;;;19.80;99.90;;;;;;4961994;28;20026;-70
2021/07/05 11:07:57;;;;;;;6.47;3.13;;;19.70;99.90;;;;;;4996459;28;20092;-67
2021/07/05 11:10:30;;;;;;;4.72;3.10;;;19.70;99.90;;;;;;4994238;28;20034;-68
2021/07/05 11:13:01;;;;;;;4.35;3.00;;;19.60;99.90;;;;;;4997780;28;20102;-68
2021/07/05 11:15:49;;;;;;;4.93;2.50;;;19.60;99.90;;;;;;4981074;28;20759;-68
2021/07/05 11:18:44;;;;;;;5.05;2.60;;;19.60;99.90;;;;;;4997859;28;20030;-67
2021/07/05 11:21:10;;;;;;;6.13;3.00;;;19.60;99.90;;;;;;4997277;28;20423;-68
2021/07/05 11:24:05;;;;;;;4.53;2.20;;;19.70;99.90;;;;;;4979654;28;20128;-67
2021/07/05 11:26:37;;;;;;;4.90;2.30;;;19.60;99.90;;;;;;4988143;28;20184;-68
2021/07/05 11:29:15;;;;;;;4.88;2.20;;;19.80;99.90;;;;;;4996948;28;20117;-68
2021/07/05 11:32:00;;;;;;;4.25;2.05;;;19.90;99.90;;;;;;4995135;28;20025;-68
2021/07/05 11:34:37;;;;;;;4.45;1.67;;;20.00;99.90;;;;;;4977107;28;20070;-67
2021/07/05 11:37:12;;;;;;;3.45;1.65;;;19.90;99.90;;;;;;4978376;28;20503;-68
2021/07/05 11:39:44;;;;;;;3.92;1.92;;;19.90;99.90;;;;;;4995770;28;20034;-68
2021/07/05 11:42:13;;;;;;;4.75;2.05;;;20.00;99.90;;;;;;4981670;28;20049;-67
2021/07/05 11:44:49;;;;;;;3.95;1.85;;;20.00;99.90;;;;;;4982720;28;20042;-68
2021/07/05 11:47:41;;;;;;;3.10;1.80;;;19.80;99.90;;;;;;4997677;28;20030;-68
2021/07/05 11:50:22;;;;;;;;;;;19.70;99.90;;;;;;4997082;28;20037;-68
2021/07/05 11:52:49;;;;;;;4.30;2.05;;;19.60;99.90;;;;;;4996370;28;19928;-68
2021/07/05 11:55:18;;;;;;;4.85;2.20;;;19.60;99.90;;;;;;4984244;28;20038;-68
2021/07/05 11:57:54;;;;;;;5.35;2.20;;;19.50;99.90;;;;;;4961574;28;20057;-68
2021/07/05 12:00:29;;;;;;;5.82;2.67;;;19.40;99.90;;;;;;4993043;28;20022;-67
2021/07/05 12:03:02;;;;;;;4.63;2.80;;;19.40;99.90;;;;;;4965831;28;20037;-68
2021/07/05 12:05:30;;;;;;;5.93;2.83;;;19.20;99.90;;;;;;4987959;28;20439;-67
2021/07/05 12:08:21;;;;;;;4.65;3.08;;;19.20;99.90;;;;;;4980119;28;20364;-67
2021/07/05 12:10:47;;;;;;;4.72;2.60;;;19.10;99.90;;;;;;4993148;28;20034;-68
2021/07/05 12:13:23;;;;;;;5.47;2.83;;;19.10;99.90;;;;;;4977676;28;20041;-67
2021/07/05 12:16:03;;;;;;;5.95;2.70;;;19.00;99.90;;;;;;4950314;28;20523;-70
2021/07/05 12:18:30;;;;;;;4.85;3.00;;;18.90;99.90;;;;;;4995853;28;20117;-69
2021/07/05 12:21:00;;;;;;;6.03;3.47;;;18.90;99.90;;;;;;4996778;28;20095;-67
2021/07/05 12:23:38;;;;;;;5.45;2.95;;;18.90;99.90;;;;;;4991647;28;20038;-67
2021/07/05 12:26:20;;;;;;;4.72;2.97;;;18.90;99.90;;;;;;4996388;28;20243;-67
2021/07/05 12:29:58;;;;;;;5.43;3.10;;;18.90;99.90;;;;;;4964266;28;20030;-66
2021/07/05 12:32:10;;;;;;;6.10;3.20;;;18.70;99.90;;;;;;4981226;28;20038;-67
2021/07/05 12:35:03;;;;;;;5.00;2.80;;;18.80;99.90;;;;;;4995704;28;20036;-67
2021/07/05 12:37:48;;;;;;;5.82;2.70;;;18.90;99.90;;;;;;4994656;28;20076;-67
2021/07/05 12:40:25;;;;;;;4.13;2.42;;;18.90;99.90;;;;;;4983824;28;20033;-67
2021/07/05 12:42:51;;;;;;;4.25;2.67;;;18.90;99.90;;;;;;4975872;28;20080;-67
2021/07/05 12:45:25;;;;;;;5.18;3.10;;;18.60;99.90;;;;;;4996028;28;20034;-67
2021/07/05 12:47:55;;;;;;;5.10;2.70;;;18.60;99.90;;;;;;4995919;28;20030;-67
2021/07/05 12:50:49;;;;;;;4.88;2.75;;;18.60;99.90;;;;;;4995951;28;20029;-67
2021/07/05 12:53:26;;;;;;;4.75;2.40;;;18.80;99.90;;;;;;4981559;28;20479;-67
2021/07/05 12:56:15;;;;;;;4.28;2.60;;;18.70;99.90;;;;;;4976773;28;20038;-67
2021/07/05 12:58:46;;;;;;;5.50;2.70;;;18.60;99.90;;;;;;4996579;28;20104;-68
2021/07/05 13:01:17;;;;;;;6.07;3.00;;;18.70;99.90;;;;;;4980068;28;20132;-68
2021/07/05 13:04:28;;;;;;;6.25;3.00;;;18.80;99.90;;;;;;4976292;28;20026;-67
2021/07/05 13:07:03;;;;;;;6.65;4.20;;;19.00;99.90;;;;;;4992248;28;20038;-70
2021/07/05 13:09:32;;;;;;;7.68;4.80;;;18.80;99.90;;;;;;4995540;28;20091;-67